CYQH

Details ICAO CYQH (YQH)
Name WATSON LAKE
Region Canada
Timezone America/Whitehorse (UTC-8.0)
Plans Departing 8
Arriving 10
Stats Elevation 2,255 ft / 687 m (AMSL)
Location 60.117502° -128.820560°
Runways 1
Magnetic Variation 19.787° E
Sunrise 2017-12-16 17:36:22 UTC / 2017-12-16 09:36:22 Local
Sunset 2017-12-16 23:28:34 UTC / 2017-12-16 15:28:34 Local
Advertisement - Login to hide

Runways

ID Width Length Bearing (true) Bearing (mag) Surface Threshold Offset Overrun Length
08 150 ft / 46 m 5,462 ft / 1,665 m 109.49° 89.70° Asphalt 0 ft / 0 m 0 ft / 0 m
26 150 ft / 46 m 5,462 ft / 1,665 m 289.51° 269.72° Asphalt 0 ft / 0 m 0 ft / 0 m

Map

Weather


0- 5 10 15 20 25 30 35+ Temperature / ° C

Clouds and Precipitation
Forecast for 2017-12-17 06:00 UTC. Updated 2 hours ago

Ground ~20,000 ft ~40,000 ft Winds

METAR

CYQH 170300Z 08003KT 20SM SCT060 M07/M08 A2924 RMK SC4 SLP946

TAF

TAF TAF CYQH 162338Z 1700/1712 14005KT P6SM OVC060 TEMPO 1700/1704 5SM -SHSN OVC020 FM170400 VRB03KT P6SM FEW060 SCT080 BKN120 RMK NXT FCST BY 170600Z

Frequencies

Unicom 122.10 MHz MANDATORY FREQ
Warning: Do not use this data for real-world aviation or navigation. No guarantee of current accuracy is given.